Time;durP1;ratioP1;P1;durP2;ratioP2;P2;SDS_P1;SDS_P2;PMS_P1;PMS_P2;Temp;Humidity;BMP_temperature;BMP_pressure;BME280_temperature;BME280_humidity;BME280_pressure;Samples;Min_cycle;Max_cycle;Signal;HPM_P1;HPM_P2
2023/08/16 00:01:29;;;;;;;6.75;4.45;;;;;;;;;;5033156;28;20781;-77
2023/08/16 00:03:54;;;;;;;8.97;4.47;;;;;;;;;;5031641;28;20028;-77
2023/08/16 00:06:19;;;;;;;10.17;4.30;;;;;;;;;;5033274;28;20259;-78
2023/08/16 00:08:44;;;;;;;6.97;4.60;;;;;;;;;;5031885;28;20290;-76
2023/08/16 00:11:10;;;;;;;9.60;3.90;;;;;;;;;;5033683;28;20815;-77
2023/08/16 00:13:35;;;;;;;7.50;3.95;;;;;;;;;;5034213;28;20255;-76
2023/08/16 00:16:01;;;;;;;5.40;4.07;;;;;;;;;;5035180;28;20057;-77
2023/08/16 00:18:28;;;;;;;9.20;4.43;;;;;;;;;;5037611;28;20025;-77
2023/08/16 00:20:53;;;;;;;5.72;3.83;;;;;;;;;;5036098;28;20573;-78
2023/08/16 00:23:18;;;;;;;10.70;4.13;;;;;;;;;;5037286;28;20124;-77
2023/08/16 00:25:44;;;;;;;7.78;4.10;;;;;;;;;;5037208;28;20638;-77
2023/08/16 00:28:09;;;;;;;9.27;4.20;;;;;;;;;;5036944;28;20104;-77
2023/08/16 00:30:34;;;;;;;10.80;4.17;;;;;;;;;;5039683;28;20384;-77
2023/08/16 00:32:59;;;;;;;9.87;4.23;;;;;;;;;;5037758;28;20290;-77
2023/08/16 00:35:25;;;;;;;12.63;4.07;;;;;;;;;;5036993;28;20281;-78
2023/08/16 00:37:50;;;;;;;6.15;4.10;;;;;;;;;;5036483;28;20262;-76
2023/08/16 00:40:15;;;;;;;8.40;3.92;;;;;;;;;;5035369;28;20029;-77
2023/08/16 00:42:41;;;;;;;7.18;3.95;;;;;;;;;;5036525;28;20031;-77
2023/08/16 00:45:07;;;;;;;6.03;3.72;;;;;;;;;;5035055;28;20021;-77
2023/08/16 00:47:33;;;;;;;7.43;3.72;;;;;;;;;;5036393;28;20022;-77
2023/08/16 00:49:59;;;;;;;8.77;4.25;;;;;;;;;;5035080;28;20496;-77
2023/08/16 00:52:24;;;;;;;10.43;4.20;;;;;;;;;;5033399;28;20052;-77
2023/08/16 00:54:50;;;;;;;7.80;4.07;;;;;;;;;;5034807;28;20033;-77
2023/08/16 00:57:15;;;;;;;7.78;4.15;;;;;;;;;;5036709;28;20029;-77
2023/08/16 00:59:41;;;;;;;5.68;3.85;;;;;;;;;;5037213;28;20025;-78
2023/08/16 01:02:06;;;;;;;5.78;3.80;;;;;;;;;;5036936;28;20034;-78
2023/08/16 01:04:32;;;;;;;10.02;4.32;;;;;;;;;;5035468;28;20025;-77
2023/08/16 01:06:57;;;;;;;7.32;3.85;;;;;;;;;;5038920;28;20081;-77
2023/08/16 01:09:24;;;;;;;6.63;3.60;;;;;;;;;;5036125;28;20394;-77
2023/08/16 01:12:07;;;;;;;9.43;3.95;;;;;;;;;;5034764;28;20021;-77
2023/08/16 01:14:50;;;;;;;7.70;3.87;;;;;;;;;;5036109;28;20036;-77
2023/08/16 01:17:16;;;;;;;8.10;4.10;;;;;;;;;;5034559;28;20028;-77
2023/08/16 01:19:42;;;;;;;6.75;3.95;;;;;;;;;;5035755;28;20044;-77
2023/08/16 01:22:23;;;;;;;5.32;3.80;;;;;;;;;;5036023;28;20030;-77
2023/08/16 01:25:18;;;;;;;5.03;3.80;;;;;;;;;;5036819;28;20052;-77
2023/08/16 01:27:44;;;;;;;10.38;4.22;;;;;;;;;;5035787;28;20107;-77
2023/08/16 01:30:10;;;;;;;7.55;3.88;;;;;;;;;;5035406;28;20025;-76
2023/08/16 01:32:36;;;;;;;6.53;4.20;;;;;;;;;;5034682;28;20108;-78
2023/08/16 01:35:02;;;;;;;4.78;3.80;;;;;;;;;;5034879;28;20029;-77
2023/08/16 01:37:28;;;;;;;6.15;4.30;;;;;;;;;;5036201;28;20511;-77
2023/08/16 01:39:58;;;;;;;7.40;3.83;;;;;;;;;;5036018;28;20108;-77
2023/08/16 01:42:23;;;;;;;7.43;3.90;;;;;;;;;;5036060;28;20516;-77
2023/08/16 01:44:50;;;;;;;7.63;4.10;;;;;;;;;;5034318;28;20029;-77
2023/08/16 01:47:16;;;;;;;4.90;3.97;;;;;;;;;;5034563;28;20508;-77
2023/08/16 01:49:42;;;;;;;6.07;4.03;;;;;;;;;;5034077;28;20021;-76
2023/08/16 01:52:08;;;;;;;5.55;4.00;;;;;;;;;;5034740;28;20029;-77
2023/08/16 01:54:33;;;;;;;5.63;4.00;;;;;;;;;;5033782;28;20036;-78
2023/08/16 01:56:58;;;;;;;7.40;3.60;;;;;;;;;;5033970;28;20017;-77
2023/08/16 01:59:24;;;;;;;7.73;4.00;;;;;;;;;;5034901;28;20393;-76
2023/08/16 02:01:49;;;;;;;9.45;4.60;;;;;;;;;;5033732;28;20294;-77
2023/08/16 02:04:14;;;;;;;5.83;3.83;;;;;;;;;;5034843;28;20021;-77
2023/08/16 02:06:40;;;;;;;5.60;3.95;;;;;;;;;;5033066;28;20259;-78
2023/08/16 02:09:05;;;;;;;7.50;4.27;;;;;;;;;;5033306;28;20021;-77
2023/08/16 02:11:30;;;;;;;10.48;4.40;;;;;;;;;;5035133;28;20722;-76
2023/08/16 02:13:57;;;;;;;7.68;4.57;;;;;;;;;;5035117;28;20035;-78
2023/08/16 02:16:23;;;;;;;6.00;4.60;;;;;;;;;;5033451;28;20026;-77
2023/08/16 02:18:48;;;;;;;9.30;4.88;;;;;;;;;;5033311;28;20024;-77
2023/08/16 02:21:13;;;;;;;7.10;4.43;;;;;;;;;;5033626;28;20033;-77
2023/08/16 02:23:39;;;;;;;10.55;4.78;;;;;;;;;;5034645;28;20488;-77
2023/08/16 02:26:04;;;;;;;7.20;4.20;;;;;;;;;;5034539;28;20064;-77
2023/08/16 02:28:29;;;;;;;6.83;4.50;;;;;;;;;;5033932;28;20259;-77
2023/08/16 02:31:05;;;;;;;7.17;4.57;;;;;;;;;;5033338;28;20626;-77
2023/08/16 02:33:34;;;;;;;8.05;4.38;;;;;;;;;;5034399;28;20684;-77
2023/08/16 02:35:59;;;;;;;8.02;4.00;;;;;;;;;;5034208;28;20022;-77
2023/08/16 02:38:24;;;;;;;8.93;4.10;;;;;;;;;;5034476;28;20028;-77
2023/08/16 02:40:50;;;;;;;6.60;3.95;;;;;;;;;;5033682;28;20091;-77
2023/08/16 02:43:15;;;;;;;7.97;3.70;;;;;;;;;;5034251;28;20040;-77
2023/08/16 02:45:41;;;;;;;6.05;3.85;;;;;;;;;;5034349;28;20293;-77
2023/08/16 02:48:06;;;;;;;4.30;3.38;;;;;;;;;;5034495;28;20032;-77
2023/08/16 02:50:31;;;;;;;4.07;3.00;;;;;;;;;;5034954;28;20033;-76
2023/08/16 02:52:57;;;;;;;5.13;2.47;;;;;;;;;;5032690;28;20021;-76
2023/08/16 02:55:22;;;;;;;4.28;2.47;;;;;;;;;;5032631;28;20259;-75
2023/08/16 02:57:47;;;;;;;4.05;2.55;;;;;;;;;;5033965;28;20021;-77
2023/08/16 03:00:13;;;;;;;4.40;3.08;;;;;;;;;;5034196;28;20021;-76
2023/08/16 03:02:38;;;;;;;4.20;2.83;;;;;;;;;;5034252;28;20025;-76
2023/08/16 03:05:04;;;;;;;5.07;2.65;;;;;;;;;;5033592;28;20033;-76
2023/08/16 03:07:29;;;;;;;4.28;2.92;;;;;;;;;;5032281;28;20459;-77
2023/08/16 03:09:55;;;;;;;6.57;2.92;;;;;;;;;;5032420;28;20032;-77
2023/08/16 03:12:20;;;;;;;5.40;2.53;;;;;;;;;;5033681;28;20030;-76
2023/08/16 03:14:45;;;;;;;4.60;2.70;;;;;;;;;;5033573;28;20468;-77
2023/08/16 03:17:10;;;;;;;4.82;2.72;;;;;;;;;;5034047;28;20405;-77
2023/08/16 03:19:36;;;;;;;4.32;3.10;;;;;;;;;;5034056;28;20025;-77
2023/08/16 03:22:02;;;;;;;4.57;2.72;;;;;;;;;;5033481;28;20083;-77
2023/08/16 03:24:27;;;;;;;3.83;2.83;;;;;;;;;;5034518;28;20029;-77
2023/08/16 03:26:53;;;;;;;4.78;2.80;;;;;;;;;;5033597;28;20040;-77
2023/08/16 03:29:18;;;;;;;4.60;2.75;;;;;;;;;;5033358;28;20477;-77
2023/08/16 03:31:44;;;;;;;5.63;3.00;;;;;;;;;;5032633;28;20029;-77
2023/08/16 03:34:09;;;;;;;3.40;2.53;;;;;;;;;;5032106;28;20025;-78
2023/08/16 03:36:34;;;;;;;6.20;2.60;;;;;;;;;;5032163;28;20265;-77
2023/08/16 03:39:00;;;;;;;5.13;2.80;;;;;;;;;;5033323;28;20033;-77
2023/08/16 03:41:25;;;;;;;4.95;2.75;;;;;;;;;;5032135;28;20439;-77
2023/08/16 03:43:50;;;;;;;3.50;2.65;;;;;;;;;;5033462;28;20095;-77
2023/08/16 03:46:15;;;;;;;7.67;2.70;;;;;;;;;;5033653;28;20033;-77
2023/08/16 03:48:41;;;;;;;3.47;2.53;;;;;;;;;;5033047;28;20255;-77
2023/08/16 03:51:06;;;;;;;5.10;2.80;;;;;;;;;;5031870;28;20036;-77
2023/08/16 03:53:31;;;;;;;3.13;2.67;;;;;;;;;;5033586;28;20143;-78
2023/08/16 03:55:58;;;;;;;3.83;2.37;;;;;;;;;;5035844;28;20068;-77
2023/08/16 03:58:24;;;;;;;4.40;2.50;;;;;;;;;;5033072;28;20282;-77
2023/08/16 04:00:51;;;;;;;3.55;2.42;;;;;;;;;;5033057;28;20056;-78
2023/08/16 04:03:16;;;;;;;4.75;2.45;;;;;;;;;;5033399;28;20083;-77
2023/08/16 04:05:41;;;;;;;4.18;2.63;;;;;;;;;;5033395;28;20029;-77
2023/08/16 04:08:07;;;;;;;5.57;2.42;;;;;;;;;;5031708;28;20028;-77
2023/08/16 04:10:32;;;;;;;5.77;2.30;;;;;;;;;;5033136;28;20385;-78
2023/08/16 04:12:57;;;;;;;3.37;2.50;;;;;;;;;;5034547;28;20629;-77
2023/08/16 04:15:22;;;;;;;3.57;2.43;;;;;;;;;;5033167;28;20285;-77
2023/08/16 04:17:48;;;;;;;4.73;2.60;;;;;;;;;;5032845;28;20259;-78
2023/08/16 04:20:13;;;;;;;4.23;2.60;;;;;;;;;;5031159;28;20849;-78
2023/08/16 04:22:38;;;;;;;6.53;2.87;;;;;;;;;;5032968;28;20267;-77
2023/08/16 04:25:04;;;;;;;2.83;2.38;;;;;;;;;;5032372;28;20255;-78
2023/08/16 04:27:29;;;;;;;5.53;3.13;;;;;;;;;;5032155;28;20021;-77
2023/08/16 04:29:54;;;;;;;3.70;2.75;;;;;;;;;;5033013;28;20472;-77
2023/08/16 04:32:19;;;;;;;5.70;2.70;;;;;;;;;;5032848;28;20041;-77
2023/08/16 04:34:45;;;;;;;4.63;2.60;;;;;;;;;;5032643;28;20040;-77
2023/08/16 04:37:10;;;;;;;5.03;2.80;;;;;;;;;;5032892;28;20755;-77
2023/08/16 04:39:35;;;;;;;4.43;2.67;;;;;;;;;;5031540;28;20269;-77
2023/08/16 04:42:00;;;;;;;4.15;2.47;;;;;;;;;;5032926;28;20259;-77
2023/08/16 04:44:26;;;;;;;3.88;2.40;;;;;;;;;;5032825;28;20036;-77
2023/08/16 04:46:51;;;;;;;7.53;2.60;;;;;;;;;;5032874;28;20100;-77
2023/08/16 04:49:16;;;;;;;4.80;2.63;;;;;;;;;;5031346;28;20029;-77
2023/08/16 04:51:42;;;;;;;5.90;2.97;;;;;;;;;;5032574;28;20029;-77
2023/08/16 04:54:07;;;;;;;4.32;2.75;;;;;;;;;;5032413;28;20029;-78
2023/08/16 04:56:33;;;;;;;5.47;2.85;;;;;;;;;;5032853;28;20048;-77
2023/08/16 04:58:58;;;;;;;8.38;3.25;;;;;;;;;;5032713;28;20044;-77
2023/08/16 05:01:23;;;;;;;4.80;3.10;;;;;;;;;;5032927;28;20029;-77
2023/08/16 05:03:50;;;;;;;6.47;3.40;;;;;;;;;;5035452;28;20396;-77
2023/08/16 05:06:16;;;;;;;3.97;2.80;;;;;;;;;;5036446;28;20304;-77
2023/08/16 05:08:41;;;;;;;6.85;3.15;;;;;;;;;;5036601;28;20029;-77
2023/08/16 05:11:07;;;;;;;4.90;3.40;;;;;;;;;;5036087;28;20037;-77
2023/08/16 05:13:32;;;;;;;7.18;3.53;;;;;;;;;;5036689;28;20021;-77
2023/08/16 05:15:57;;;;;;;4.57;3.42;;;;;;;;;;5035804;28;20480;-77
2023/08/16 05:18:22;;;;;;;4.87;3.17;;;;;;;;;;5035878;28;20060;-77
2023/08/16 05:20:48;;;;;;;6.13;3.10;;;;;;;;;;5034354;28;20270;-77
2023/08/16 05:23:13;;;;;;;7.73;3.20;;;;;;;;;;5035756;28;20052;-77
2023/08/16 05:25:38;;;;;;;4.77;2.87;;;;;;;;;;5035497;28;20733;-77
2023/08/16 05:28:04;;;;;;;4.25;3.17;;;;;;;;;;5035974;28;20267;-76
2023/08/16 05:30:29;;;;;;;5.28;3.17;;;;;;;;;;5035975;28;20032;-76
2023/08/16 05:32:55;;;;;;;4.65;3.00;;;;;;;;;;5034586;28;20034;-76
2023/08/16 05:35:21;;;;;;;7.82;3.00;;;;;;;;;;5034352;28;20395;-77
2023/08/16 05:37:47;;;;;;;5.43;3.05;;;;;;;;;;5035731;28;20026;-77
2023/08/16 05:40:13;;;;;;;5.38;3.00;;;;;;;;;;5035902;28;20033;-77
2023/08/16 05:42:38;;;;;;;4.95;3.10;;;;;;;;;;5035956;28;20029;-78
2023/08/16 05:45:05;;;;;;;6.10;3.47;;;;;;;;;;5035105;28;20033;-77
2023/08/16 05:47:30;;;;;;;5.68;3.60;;;;;;;;;;5035014;28;20131;-77
2023/08/16 05:49:57;;;;;;;7.63;3.40;;;;;;;;;;5042435;28;20017;-79
2023/08/16 05:52:22;;;;;;;6.90;3.70;;;;;;;;;;5043485;28;20029;-79
2023/08/16 05:54:47;;;;;;;6.35;3.63;;;;;;;;;;5046220;28;20029;-80
2023/08/16 05:57:13;;;;;;;4.85;3.33;;;;;;;;;;5039666;28;20037;-80
2023/08/16 05:59:39;;;;;;;5.80;3.70;;;;;;;;;;5038049;28;20040;-76
2023/08/16 06:02:06;;;;;;;6.82;4.20;;;;;;;;;;5037594;28;20255;-77
2023/08/16 06:04:32;;;;;;;8.30;3.80;;;;;;;;;;5037443;28;20032;-77
2023/08/16 06:06:57;;;;;;;6.35;4.80;;;;;;;;;;5038077;28;20061;-76
2023/08/16 06:09:22;;;;;;;8.57;4.30;;;;;;;;;;5038405;28;20030;-76
2023/08/16 06:11:48;;;;;;;5.22;4.00;;;;;;;;;;5038207;28;20747;-77
2023/08/16 06:14:14;;;;;;;5.35;3.60;;;;;;;;;;5036868;28;20461;-77
2023/08/16 06:16:39;;;;;;;7.93;4.00;;;;;;;;;;5037414;28;20030;-77
2023/08/16 06:19:04;;;;;;;6.30;3.90;;;;;;;;;;5036904;28;20403;-77
2023/08/16 06:21:30;;;;;;;6.22;3.75;;;;;;;;;;5038708;28;20030;-77
2023/08/16 06:23:56;;;;;;;4.72;3.65;;;;;;;;;;5038052;28;20089;-76
2023/08/16 06:26:21;;;;;;;6.75;4.07;;;;;;;;;;5037241;28;20029;-77
2023/08/16 06:28:47;;;;;;;4.97;3.80;;;;;;;;;;5039099;28;20025;-78
2023/08/16 06:31:13;;;;;;;8.00;4.13;;;;;;;;;;5041238;28;20025;-83
2023/08/16 06:33:38;;;;;;;5.68;3.88;;;;;;;;;;5038635;28;20036;-78
2023/08/16 06:36:03;;;;;;;6.43;3.70;;;;;;;;;;5039244;28;20027;-78
2023/08/16 06:38:29;;;;;;;5.13;3.50;;;;;;;;;;5038281;28;20646;-78
2023/08/16 06:40:55;;;;;;;14.07;6.73;;;;;;;;;;5039010;28;20026;-78
2023/08/16 06:43:20;;;;;;;5.50;3.78;;;;;;;;;;5038630;28;20745;-78
2023/08/16 06:45:46;;;;;;;11.60;4.15;;;;;;;;;;5036780;28;20075;-78
2023/08/16 06:48:11;;;;;;;4.80;3.70;;;;;;;;;;5038688;28;20081;-78
2023/08/16 06:50:36;;;;;;;12.73;3.90;;;;;;;;;;5037267;28;20064;-76
2023/08/16 06:53:02;;;;;;;6.18;3.92;;;;;;;;;;5035836;28;20034;-78
2023/08/16 06:55:28;;;;;;;10.10;4.25;;;;;;;;;;5036564;28;20021;-79
2023/08/16 06:57:54;;;;;;;5.10;3.70;;;;;;;;;;5036564;28;20029;-78
2023/08/16 07:00:19;;;;;;;5.80;4.05;;;;;;;;;;5034028;28;20036;-77
2023/08/16 07:02:44;;;;;;;4.50;3.83;;;;;;;;;;5033678;28;20035;-76
2023/08/16 07:05:11;;;;;;;5.93;3.20;;;;;;;;;;5032362;28;20436;-76
2023/08/16 07:07:36;;;;;;;6.53;3.60;;;;;;;;;;5032673;28;20266;-78
2023/08/16 07:10:02;;;;;;;4.47;3.53;;;;;;;;;;5034762;28;20029;-76
2023/08/16 07:12:27;;;;;;;5.55;3.50;;;;;;;;;;5034222;28;20025;-77
2023/08/16 07:14:53;;;;;;;5.60;3.65;;;;;;;;;;5033698;28;20021;-77
2023/08/16 07:17:18;;;;;;;7.45;3.70;;;;;;;;;;5035870;28;20029;-77
2023/08/16 07:19:47;;;;;;;6.25;3.42;;;;;;;;;;5033009;28;20059;-77
2023/08/16 07:22:12;;;;;;;7.43;3.58;;;;;;;;;;5033084;28;20404;-81
2023/08/16 07:24:37;;;;;;;5.65;3.67;;;;;;;;;;5033875;28;20034;-78
2023/08/16 07:27:03;;;;;;;7.07;3.23;;;;;;;;;;5032199;28;20034;-77
2023/08/16 07:29:28;;;;;;;8.70;3.33;;;;;;;;;;5034994;28;20247;-76
2023/08/16 07:31:54;;;;;;;6.03;3.55;;;;;;;;;;5032854;28;20120;-76
2023/08/16 07:34:19;;;;;;;6.38;3.70;;;;;;;;;;5030457;28;20075;-76
2023/08/16 07:36:45;;;;;;;6.93;4.00;;;;;;;;;;5033708;28;20543;-76
2023/08/16 07:39:11;;;;;;;7.07;3.88;;;;;;;;;;5033836;28;20046;-76
2023/08/16 07:41:36;;;;;;;7.25;3.80;;;;;;;;;;5033523;28;20502;-77
2023/08/16 07:44:02;;;;;;;7.85;3.40;;;;;;;;;;5033358;28;20084;-76
2023/08/16 07:46:27;;;;;;;6.00;3.90;;;;;;;;;;5032013;28;20029;-76
2023/08/16 07:48:52;;;;;;;7.57;4.00;;;;;;;;;;5033827;28;20013;-76
2023/08/16 07:51:17;;;;;;;5.00;3.80;;;;;;;;;;5033692;28;20290;-76
2023/08/16 07:53:43;;;;;;;6.47;4.20;;;;;;;;;;5034126;28;20265;-78
2023/08/16 07:56:08;;;;;;;8.00;4.40;;;;;;;;;;5033233;28;20250;-77
2023/08/16 07:58:33;;;;;;;5.03;4.20;;;;;;;;;;5033968;28;20028;-78
2023/08/16 08:00:59;;;;;;;5.77;4.00;;;;;;;;;;5035578;28;20301;-78
2023/08/16 08:03:25;;;;;;;6.72;4.28;;;;;;;;;;5035179;28;20263;-77
2023/08/16 08:05:50;;;;;;;8.13;3.83;;;;;;;;;;5034664;28;20027;-77
2023/08/16 08:08:16;;;;;;;5.63;3.70;;;;;;;;;;5033456;28;20023;-77
2023/08/16 08:10:44;;;;;;;7.57;4.05;;;;;;;;;;5035235;28;20395;-77
2023/08/16 08:13:10;;;;;;;4.63;4.10;;;;;;;;;;5034753;28;20033;-77
2023/08/16 08:15:35;;;;;;;4.60;3.72;;;;;;;;;;5033367;28;20388;-77
2023/08/16 08:18:00;;;;;;;12.63;4.20;;;;;;;;;;5034537;28;20030;-77
2023/08/16 08:20:29;;;;;;;5.30;3.95;;;;;;;;;;5033811;28;20784;-77
2023/08/16 08:22:54;;;;;;;5.70;4.30;;;;;;;;;;5033695;28;20032;-77
2023/08/16 08:25:19;;;;;;;8.05;3.95;;;;;;;;;;5033232;28;20025;-77
2023/08/16 08:27:45;;;;;;;6.30;3.90;;;;;;;;;;5033939;28;20132;-77
2023/08/16 08:30:11;;;;;;;7.22;4.30;;;;;;;;;;5034027;28;20156;-77
2023/08/16 08:32:36;;;;;;;7.80;4.22;;;;;;;;;;5033812;28;20592;-77
2023/08/16 08:35:04;;;;;;;7.05;4.75;;;;;;;;;;5032367;28;20029;-77
2023/08/16 08:37:30;;;;;;;9.77;4.65;;;;;;;;;;5033992;28;20388;-77
2023/08/16 08:39:57;;;;;;;6.03;4.13;;;;;;;;;;5035775;28;20022;-77
2023/08/16 08:42:23;;;;;;;5.00;4.25;;;;;;;;;;5037576;28;20346;-77
2023/08/16 08:44:49;;;;;;;8.75;4.28;;;;;;;;;;5037818;28;20044;-77
2023/08/16 08:47:15;;;;;;;8.75;4.70;;;;;;;;;;5037734;28;20065;-77
2023/08/16 08:49:40;;;;;;;6.75;5.47;;;;;;;;;;5038008;28;20064;-77
2023/08/16 08:52:06;;;;;;;7.07;5.20;;;;;;;;;;5035999;28;20025;-76
2023/08/16 08:54:32;;;;;;;9.10;5.10;;;;;;;;;;5035936;28;20447;-77
2023/08/16 08:57:02;;;;;;;6.10;4.65;;;;;;;;;;5037627;28;20037;-76
2023/08/16 08:59:30;;;;;;;6.20;4.60;;;;;;;;;;5037514;28;20113;-77
2023/08/16 09:01:58;;;;;;;11.90;5.15;;;;;;;;;;5037468;28;20065;-77
2023/08/16 09:04:24;;;;;;;8.52;4.97;;;;;;;;;;5038063;28;20067;-77
2023/08/16 09:06:50;;;;;;;7.00;4.63;;;;;;;;;;5037799;28;20022;-77
2023/08/16 09:09:16;;;;;;;6.13;4.57;;;;;;;;;;5037560;28;20443;-77
2023/08/16 09:11:42;;;;;;;8.02;4.75;;;;;;;;;;5037196;28;20036;-77
2023/08/16 09:14:08;;;;;;;5.72;4.53;;;;;;;;;;5035800;28;20017;-77
2023/08/16 09:16:33;;;;;;;7.43;4.60;;;;;;;;;;5035831;28;20017;-77
2023/08/16 09:18:59;;;;;;;9.17;4.47;;;;;;;;;;5037296;28;20044;-77
2023/08/16 09:21:24;;;;;;;5.33;4.47;;;;;;;;;;5037304;28;20266;-76
2023/08/16 09:23:58;;;;;;;8.48;4.70;;;;;;;;;;5036574;28;20761;-77
2023/08/16 09:26:24;;;;;;;7.25;4.45;;;;;;;;;;5037241;28;20043;-77
2023/08/16 09:29:02;;;;;;;5.68;4.03;;;;;;;;;;5036334;28;20112;-77
2023/08/16 09:31:31;;;;;;;5.93;4.00;;;;;;;;;;5037329;28;20087;-77
2023/08/16 09:34:01;;;;;;;8.60;4.50;;;;;;;;;;5037152;28;20049;-77
2023/08/16 09:36:30;;;;;;;5.97;4.00;;;;;;;;;;5037191;28;20499;-77
2023/08/16 09:39:08;;;;;;;6.10;3.78;;;;;;;;;;5037060;28;20061;-77
2023/08/16 09:41:34;;;;;;;9.35;3.75;;;;;;;;;;5037157;28;20033;-77
2023/08/16 09:44:07;;;;;;;5.05;3.50;;;;;;;;;;5037321;28;20029;-77
2023/08/16 09:46:34;;;;;;;4.60;3.90;;;;;;;;;;5036344;28;20361;-77
2023/08/16 09:49:07;;;;;;;6.38;4.03;;;;;;;;;;5036032;28;20022;-77
2023/08/16 09:51:41;;;;;;;11.10;4.30;;;;;;;;;;5035782;28;20029;-77
2023/08/16 09:54:17;;;;;;;6.70;4.10;;;;;;;;;;5037389;28;20076;-77
2023/08/16 09:56:43;;;;;;;6.32;3.67;;;;;;;;;;5036935;28;20024;-77
2023/08/16 09:59:10;;;;;;;11.88;4.13;;;;;;;;;;5037024;28;20025;-77
2023/08/16 10:01:36;;;;;;;5.32;3.95;;;;;;;;;;5036732;28;20022;-78
2023/08/16 10:04:02;;;;;;;7.72;4.00;;;;;;;;;;5036238;28;20029;-77
2023/08/16 10:06:31;;;;;;;6.25;3.97;;;;;;;;;;5035604;28;20029;-77
2023/08/16 10:08:57;;;;;;;4.82;3.83;;;;;;;;;;5035329;28;20022;-77
2023/08/16 10:11:26;;;;;;;5.93;3.90;;;;;;;;;;5036270;28;20128;-77
2023/08/16 10:13:51;;;;;;;8.38;4.03;;;;;;;;;;5035512;28;20033;-77
2023/08/16 10:16:19;;;;;;;7.05;4.00;;;;;;;;;;5037152;28;20029;-77
2023/08/16 10:18:46;;;;;;;7.20;4.13;;;;;;;;;;5037827;28;20033;-77
2023/08/16 10:21:16;;;;;;;7.47;4.07;;;;;;;;;;5037513;28;20033;-77
2023/08/16 10:23:42;;;;;;;6.75;4.20;;;;;;;;;;5036733;28;20017;-77
2023/08/16 10:26:15;;;;;;;5.35;3.90;;;;;;;;;;5037646;28;20500;-77
2023/08/16 10:28:42;;;;;;;;;;;;;;;;;;5038438;28;20032;-77
2023/08/16 10:31:09;;;;;;;8.88;4.60;;;;;;;;;;5036586;28;19909;-77
2023/08/16 10:33:38;;;;;;;7.18;4.00;;;;;;;;;;5036992;28;20029;-76
2023/08/16 10:36:04;;;;;;;8.43;3.95;;;;;;;;;;5038755;28;20029;-77
2023/08/16 10:38:36;;;;;;;7.35;4.22;;;;;;;;;;5037711;28;20032;-77
2023/08/16 10:41:02;;;;;;;5.53;3.85;;;;;;;;;;5037469;28;20030;-77
2023/08/16 10:43:33;;;;;;;9.45;3.55;;;;;;;;;;5036215;28;20025;-77
2023/08/16 10:45:59;;;;;;;8.48;4.07;;;;;;;;;;5036345;28;20035;-77
2023/08/16 10:48:24;;;;;;;5.35;4.00;;;;;;;;;;5037850;28;20025;-77
2023/08/16 10:50:59;;;;;;;5.57;3.80;;;;;;;;;;5037350;28;20026;-77
2023/08/16 10:53:25;;;;;;;6.32;4.00;;;;;;;;;;5036164;28;20478;-77
2023/08/16 10:55:55;;;;;;;5.07;3.83;;;;;;;;;;5037120;28;20029;-77
2023/08/16 10:58:25;;;;;;;5.93;3.90;;;;;;;;;;5036533;28;20017;-77
2023/08/16 11:00:58;;;;;;;5.50;3.75;;;;;;;;;;5037277;28;20084;-77
2023/08/16 11:03:37;;;;;;;5.00;3.70;;;;;;;;;;5037460;28;20030;-77
2023/08/16 11:06:10;;;;;;;6.18;3.67;;;;;;;;;;5036937;28;20040;-77
2023/08/16 11:08:38;;;;;;;7.15;3.95;;;;;;;;;;5036893;28;20024;-77
2023/08/16 11:11:04;;;;;;;6.22;3.67;;;;;;;;;;5036903;28;20045;-76
2023/08/16 11:13:29;;;;;;;5.83;3.83;;;;;;;;;;5036248;28;20032;-77
2023/08/16 11:15:55;;;;;;;9.85;3.80;;;;;;;;;;5037280;28;20262;-77
2023/08/16 11:18:32;;;;;;;7.28;3.60;;;;;;;;;;5036412;28;20125;-77
2023/08/16 11:20:59;;;;;;;7.22;3.85;;;;;;;;;;5035224;28;20063;-76
2023/08/16 11:23:30;;;;;;;5.40;3.60;;;;;;;;;;5037383;28;20017;-77
2023/08/16 11:26:00;;;;;;;6.30;4.25;;;;;;;;;;5036307;28;20084;-76
2023/08/16 11:28:27;;;;;;;7.30;3.85;;;;;;;;;;5035469;28;20476;-77
2023/08/16 11:30:56;;;;;;;4.75;4.00;;;;;;;;;;5034792;28;20030;-77
2023/08/16 11:33:21;;;;;;;5.57;4.03;;;;;;;;;;5033589;28;20448;-77
2023/08/16 11:35:47;;;;;;;4.80;3.90;;;;;;;;;;5035896;28;20029;-77
2023/08/16 11:38:14;;;;;;;6.25;3.78;;;;;;;;;;5036475;28;20040;-77
2023/08/16 11:40:40;;;;;;;9.82;3.90;;;;;;;;;;5035776;28;20028;-77
2023/08/16 11:43:06;;;;;;;5.35;3.90;;;;;;;;;;5035954;28;20029;-77
2023/08/16 11:45:31;;;;;;;7.72;4.28;;;;;;;;;;5036349;28;20064;-77
2023/08/16 11:47:56;;;;;;;6.30;4.18;;;;;;;;;;5036285;28;20064;-77
2023/08/16 11:50:24;;;;;;;4.85;4.07;;;;;;;;;;5036797;28;20488;-77
2023/08/16 11:53:00;;;;;;;7.80;4.05;;;;;;;;;;5036873;28;20037;-76
2023/08/16 11:55:28;;;;;;;6.45;4.35;;;;;;;;;;5035465;28;20452;-77
2023/08/16 11:57:53;;;;;;;10.10;4.43;;;;;;;;;;5036703;28;20021;-77
2023/08/16 12:00:29;;;;;;;6.05;4.18;;;;;;;;;;5036304;28;20030;-77
2023/08/16 12:02:55;;;;;;;5.72;4.13;;;;;;;;;;5037282;28;20021;-77
2023/08/16 12:05:21;;;;;;;6.75;4.50;;;;;;;;;;5037186;28;20484;-76
2023/08/16 12:07:54;;;;;;;5.70;4.20;;;;;;;;;;5035961;28;20060;-77
2023/08/16 12:10:32;;;;;;;6.45;4.43;;;;;;;;;;5036218;28;20091;-78
2023/08/16 12:12:57;;;;;;;6.07;4.13;;;;;;;;;;5036178;28;20563;-77
2023/08/16 12:15:24;;;;;;;6.10;4.33;;;;;;;;;;5041341;28;20021;-77
2023/08/16 12:17:50;;;;;;;6.18;4.45;;;;;;;;;;5040842;28;20273;-77
2023/08/16 12:20:16;;;;;;;5.78;3.85;;;;;;;;;;5040971;28;20033;-76
2023/08/16 12:22:41;;;;;;;5.47;4.20;;;;;;;;;;5041222;28;20028;-77
2023/08/16 12:25:07;;;;;;;5.40;4.47;;;;;;;;;;5036833;28;20030;-77
2023/08/16 12:27:33;;;;;;;5.20;4.30;;;;;;;;;;5037228;28;20320;-77
2023/08/16 12:29:58;;;;;;;5.88;3.97;;;;;;;;;;5037320;28;20021;-77
2023/08/16 12:32:23;;;;;;;5.80;4.30;;;;;;;;;;5037002;28;20025;-77
2023/08/16 12:34:49;;;;;;;7.05;4.15;;;;;;;;;;5036846;28;20045;-77
2023/08/16 12:37:14;;;;;;;5.65;4.28;;;;;;;;;;5036046;28;20392;-78
2023/08/16 12:39:39;;;;;;;4.70;4.10;;;;;;;;;;5039847;28;20026;-77
2023/08/16 12:42:05;;;;;;;4.70;4.20;;;;;;;;;;5040618;28;20254;-78
2023/08/16 12:44:30;;;;;;;6.30;4.47;;;;;;;;;;5039649;28;20273;-77
2023/08/16 12:46:55;;;;;;;5.10;3.90;;;;;;;;;;5040413;28;20024;-77
2023/08/16 12:49:21;;;;;;;10.13;4.47;;;;;;;;;;5040238;28;20312;-78
2023/08/16 12:51:46;;;;;;;6.70;4.40;;;;;;;;;;5040227;28;20269;-78
2023/08/16 12:54:11;;;;;;;5.72;3.92;;;;;;;;;;5039681;28;20035;-77
2023/08/16 12:56:37;;;;;;;7.78;3.80;;;;;;;;;;5039823;28;20485;-78
2023/08/16 12:59:02;;;;;;;4.63;4.03;;;;;;;;;;5039497;28;20022;-76
2023/08/16 13:01:27;;;;;;;8.23;4.50;;;;;;;;;;5040117;28;20250;-78
2023/08/16 13:03:53;;;;;;;6.13;4.60;;;;;;;;;;5038016;28;20029;-78
2023/08/16 13:06:18;;;;;;;4.78;4.00;;;;;;;;;;5038229;28;20297;-78
2023/08/16 13:08:43;;;;;;;7.10;4.15;;;;;;;;;;5039275;28;20025;-78
2023/08/16 13:11:08;;;;;;;14.27;4.53;;;;;;;;;;5039911;28;20049;-78
2023/08/16 13:13:34;;;;;;;7.60;4.37;;;;;;;;;;5036931;28;20263;-77
2023/08/16 13:15:59;;;;;;;6.37;3.67;;;;;;;;;;5036090;28;20621;-76
2023/08/16 13:18:24;;;;;;;4.97;3.95;;;;;;;;;;5035412;28;20332;-77
2023/08/16 13:20:49;;;;;;;6.20;4.00;;;;;;;;;;5037942;28;20444;-78
2023/08/16 13:23:16;;;;;;;5.23;3.80;;;;;;;;;;5039186;28;20262;-77
2023/08/16 13:25:42;;;;;;;10.18;3.92;;;;;;;;;;5037943;28;20275;-77
2023/08/16 13:28:08;;;;;;;8.77;3.95;;;;;;;;;;5039016;28;20111;-77
2023/08/16 13:30:37;;;;;;;4.00;3.55;;;;;;;;;;5039600;28;20036;-77
2023/08/16 13:33:03;;;;;;;10.38;3.90;;;;;;;;;;5039529;28;20049;-76
2023/08/16 13:35:28;;;;;;;7.53;4.25;;;;;;;;;;5039422;28;20026;-77
2023/08/16 13:37:54;;;;;;;4.40;3.97;;;;;;;;;;5039256;28;20032;-77
2023/08/16 13:40:19;;;;;;;5.27;4.00;;;;;;;;;;5038786;28;20029;-77
2023/08/16 13:42:44;;;;;;;6.72;3.80;;;;;;;;;;5039057;28;20272;-77
2023/08/16 13:45:10;;;;;;;5.77;3.87;;;;;;;;;;5037626;28;20024;-77
2023/08/16 13:47:35;;;;;;;7.88;4.05;;;;;;;;;;5038998;28;20267;-77
2023/08/16 13:50:00;;;;;;;5.35;3.58;;;;;;;;;;5038854;28;20033;-77
2023/08/16 13:52:25;;;;;;;5.60;3.90;;;;;;;;;;5037462;28;20060;-77
2023/08/16 13:54:51;;;;;;;6.73;4.27;;;;;;;;;;5038770;28;20262;-77
2023/08/16 13:57:16;;;;;;;5.45;4.00;;;;;;;;;;5036145;28;20022;-77
2023/08/16 13:59:43;;;;;;;7.67;3.97;;;;;;;;;;5036226;28;20040;-77
2023/08/16 14:02:08;;;;;;;4.70;3.83;;;;;;;;;;5037113;28;20259;-77
2023/08/16 14:04:33;;;;;;;5.70;3.63;;;;;;;;;;5037812;28;20361;-77
2023/08/16 14:06:59;;;;;;;4.47;3.20;;;;;;;;;;5037865;28;20334;-76
2023/08/16 14:09:24;;;;;;;7.53;4.20;;;;;;;;;;5037929;28;20301;-77
2023/08/16 14:11:49;;;;;;;6.38;3.58;;;;;;;;;;5038102;28;20265;-77
2023/08/16 14:14:15;;;;;;;8.02;4.65;;;;;;;;;;5036916;28;20027;-77
2023/08/16 14:16:42;;;;;;;4.90;4.30;;;;;;;;;;5037588;28;20033;-77
2023/08/16 14:19:07;;;;;;;5.20;4.00;;;;;;;;;;5037273;28;20036;-77
2023/08/16 14:21:32;;;;;;;9.87;4.37;;;;;;;;;;5037325;28;20029;-77
2023/08/16 14:23:58;;;;;;;7.95;4.22;;;;;;;;;;5036197;28;20251;-77
2023/08/16 14:26:23;;;;;;;6.93;4.25;;;;;;;;;;5037323;28;20029;-77
2023/08/16 14:28:48;;;;;;;8.73;4.10;;;;;;;;;;5036078;28;20080;-78
2023/08/16 14:31:14;;;;;;;5.35;4.05;;;;;;;;;;5035846;28;20263;-77
2023/08/16 14:33:39;;;;;;;7.43;4.40;;;;;;;;;;5035709;28;20112;-76
2023/08/16 14:36:04;;;;;;;8.07;4.55;;;;;;;;;;5034600;28;20036;-77
2023/08/16 14:38:29;;;;;;;5.18;4.25;;;;;;;;;;5036572;28;20025;-77